sensor_id;sensor_type;location;lat;lon;timestamp;P1;durP1;ratioP1;P2;durP2;ratioP2
14939;SDS011;11825;51.898;8.202;2023-08-08T00:00:44;3.50;;;3.17;;
14939;SDS011;11825;51.898;8.202;2023-08-08T00:05:46;6.13;;;3.13;;
14939;SDS011;11825;51.898;8.202;2023-08-08T00:10:48;4.67;;;2.67;;
14939;SDS011;11825;51.898;8.202;2023-08-08T00:15:50;2.50;;;2.30;;
14939;SDS011;11825;51.898;8.202;2023-08-08T00:20:52;5.17;;;3.77;;
14939;SDS011;11825;51.898;8.202;2023-08-08T00:25:54;5.17;;;3.23;;
14939;SDS011;11825;51.898;8.202;2023-08-08T00:30:55;3.20;;;2.90;;
14939;SDS011;11825;51.898;8.202;2023-08-08T00:35:57;5.43;;;4.07;;
14939;SDS011;11825;51.898;8.202;2023-08-08T00:40:59;4.93;;;4.13;;
14939;SDS011;11825;51.898;8.202;2023-08-08T00:46:10;8.17;;;5.10;;
14939;SDS011;11825;51.898;8.202;2023-08-08T00:51:12;5.80;;;4.60;;
14939;SDS011;11825;51.898;8.202;2023-08-08T00:56:16;6.43;;;4.53;;
14939;SDS011;11825;51.898;8.202;2023-08-08T01:01:18;4.07;;;3.53;;
14939;SDS011;11825;51.898;8.202;2023-08-08T01:06:38;5.87;;;3.63;;
14939;SDS011;11825;51.898;8.202;2023-08-08T01:12:08;4.20;;;3.27;;
14939;SDS011;11825;51.898;8.202;2023-08-08T01:17:15;8.30;;;4.13;;
14939;SDS011;11825;51.898;8.202;2023-08-08T01:28:35;4.27;;;3.20;;
14939;SDS011;11825;51.898;8.202;2023-08-08T01:34:22;5.27;;;2.77;;
14939;SDS011;11825;51.898;8.202;2023-08-08T01:39:34;4.37;;;2.37;;
14939;SDS011;11825;51.898;8.202;2023-08-08T01:44:58;6.90;;;3.57;;
14939;SDS011;11825;51.898;8.202;2023-08-08T01:50:21;2.83;;;2.23;;
14939;SDS011;11825;51.898;8.202;2023-08-08T01:55:41;4.47;;;3.20;;
14939;SDS011;11825;51.898;8.202;2023-08-08T02:01:03;3.43;;;3.13;;
14939;SDS011;11825;51.898;8.202;2023-08-08T02:06:33;4.63;;;2.87;;
14939;SDS011;11825;51.898;8.202;2023-08-08T02:12:04;3.93;;;2.67;;
14939;SDS011;11825;51.898;8.202;2023-08-08T02:17:18;3.70;;;3.27;;
14939;SDS011;11825;51.898;8.202;2023-08-08T02:22:36;3.90;;;2.47;;
14939;SDS011;11825;51.898;8.202;2023-08-08T02:33:18;4.23;;;2.70;;
14939;SDS011;11825;51.898;8.202;2023-08-08T02:38:23;3.00;;;2.57;;
14939;SDS011;11825;51.898;8.202;2023-08-08T02:43:42;3.23;;;2.30;;
14939;SDS011;11825;51.898;8.202;2023-08-08T02:49:26;4.00;;;3.40;;
14939;SDS011;11825;51.898;8.202;2023-08-08T02:54:41;3.77;;;3.47;;
14939;SDS011;11825;51.898;8.202;2023-08-08T03:00:16;6.77;;;4.63;;
14939;SDS011;11825;51.898;8.202;2023-08-08T03:05:28;6.47;;;5.43;;
14939;SDS011;11825;51.898;8.202;2023-08-08T03:11:00;8.47;;;6.30;;
14939;SDS011;11825;51.898;8.202;2023-08-08T03:16:12;6.60;;;6.03;;
14939;SDS011;11825;51.898;8.202;2023-08-08T03:21:41;6.83;;;5.80;;
14939;SDS011;11825;51.898;8.202;2023-08-08T03:26:53;6.13;;;5.53;;
14939;SDS011;11825;51.898;8.202;2023-08-08T03:32:22;6.87;;;6.17;;
14939;SDS011;11825;51.898;8.202;2023-08-08T03:37:35;10.23;;;6.87;;
14939;SDS011;11825;51.898;8.202;2023-08-08T03:42:44;7.03;;;6.30;;
14939;SDS011;11825;51.898;8.202;2023-08-08T03:47:49;6.80;;;6.10;;
14939;SDS011;11825;51.898;8.202;2023-08-08T03:53:14;8.03;;;5.13;;
14939;SDS011;11825;51.898;8.202;2023-08-08T04:04:00;7.20;;;6.13;;
14939;SDS011;11825;51.898;8.202;2023-08-08T04:09:14;7.07;;;6.10;;
14939;SDS011;11825;51.898;8.202;2023-08-08T04:14:21;8.87;;;6.30;;
14939;SDS011;11825;51.898;8.202;2023-08-08T04:25:27;7.73;;;6.13;;
14939;SDS011;11825;51.898;8.202;2023-08-08T04:30:37;7.60;;;6.70;;
14939;SDS011;11825;51.898;8.202;2023-08-08T04:35:56;7.57;;;5.87;;
14939;SDS011;11825;51.898;8.202;2023-08-08T04:41:09;9.67;;;6.43;;
14939;SDS011;11825;51.898;8.202;2023-08-08T04:46:39;6.97;;;5.70;;
14939;SDS011;11825;51.898;8.202;2023-08-08T04:51:52;8.90;;;6.13;;
14939;SDS011;11825;51.898;8.202;2023-08-08T04:57:18;6.90;;;5.93;;
14939;SDS011;11825;51.898;8.202;2023-08-08T05:08:12;6.70;;;5.60;;
14939;SDS011;11825;51.898;8.202;2023-08-08T05:14:00;9.63;;;5.80;;
14939;SDS011;11825;51.898;8.202;2023-08-08T05:19:14;7.00;;;5.40;;
14939;SDS011;11825;51.898;8.202;2023-08-08T05:24:47;9.53;;;6.17;;
14939;SDS011;11825;51.898;8.202;2023-08-08T05:36:12;9.33;;;4.80;;
14939;SDS011;11825;51.898;8.202;2023-08-08T05:41:29;5.73;;;4.77;;
14939;SDS011;11825;51.898;8.202;2023-08-08T05:46:58;7.93;;;4.40;;
14939;SDS011;11825;51.898;8.202;2023-08-08T05:52:12;5.87;;;4.50;;
14939;SDS011;11825;51.898;8.202;2023-08-08T05:57:37;7.17;;;5.27;;
14939;SDS011;11825;51.898;8.202;2023-08-08T06:02:51;18.80;;;7.40;;
14939;SDS011;11825;51.898;8.202;2023-08-08T06:07:55;8.90;;;7.70;;
14939;SDS011;11825;51.898;8.202;2023-08-08T06:13:13;12.30;;;8.63;;
14939;SDS011;11825;51.898;8.202;2023-08-08T06:18:18;11.00;;;9.90;;
14939;SDS011;11825;51.898;8.202;2023-08-08T06:23:35;11.63;;;10.23;;
14939;SDS011;11825;51.898;8.202;2023-08-08T06:28:43;12.73;;;11.40;;
14939;SDS011;11825;51.898;8.202;2023-08-08T06:33:51;13.70;;;12.07;;
14939;SDS011;11825;51.898;8.202;2023-08-08T06:38:55;15.53;;;12.13;;
14939;SDS011;11825;51.898;8.202;2023-08-08T06:44:00;16.20;;;12.47;;
14939;SDS011;11825;51.898;8.202;2023-08-08T06:49:38;22.77;;;15.20;;
14939;SDS011;11825;51.898;8.202;2023-08-08T06:54:54;14.40;;;12.93;;
14939;SDS011;11825;51.898;8.202;2023-08-08T07:00:00;16.43;;;14.73;;
14939;SDS011;11825;51.898;8.202;2023-08-08T07:05:12;16.90;;;15.13;;
14939;SDS011;11825;51.898;8.202;2023-08-08T07:10:16;16.57;;;14.73;;
14939;SDS011;11825;51.898;8.202;2023-08-08T07:15:19;18.80;;;15.50;;
14939;SDS011;11825;51.898;8.202;2023-08-08T07:21:02;19.40;;;17.53;;
14939;SDS011;11825;51.898;8.202;2023-08-08T07:26:12;19.53;;;16.03;;
14939;SDS011;11825;51.898;8.202;2023-08-08T07:31:18;20.77;;;15.57;;
14939;SDS011;11825;51.898;8.202;2023-08-08T07:36:25;20.17;;;16.73;;
14939;SDS011;11825;51.898;8.202;2023-08-08T07:41:36;19.27;;;17.10;;
14939;SDS011;11825;51.898;8.202;2023-08-08T07:46:44;19.27;;;17.30;;
14939;SDS011;11825;51.898;8.202;2023-08-08T07:51:49;21.03;;;18.83;;
14939;SDS011;11825;51.898;8.202;2023-08-08T07:57:04;18.80;;;16.73;;
14939;SDS011;11825;51.898;8.202;2023-08-08T08:02:16;19.60;;;17.60;;
14939;SDS011;11825;51.898;8.202;2023-08-08T08:07:20;17.97;;;16.17;;
14939;SDS011;11825;51.898;8.202;2023-08-08T08:12:22;19.73;;;17.83;;
14939;SDS011;11825;51.898;8.202;2023-08-08T08:17:48;17.90;;;16.20;;
14939;SDS011;11825;51.898;8.202;2023-08-08T08:24:04;18.47;;;15.20;;
14939;SDS011;11825;51.898;8.202;2023-08-08T08:29:22;19.47;;;17.47;;
14939;SDS011;11825;51.898;8.202;2023-08-08T08:34:32;17.77;;;16.03;;
14939;SDS011;11825;51.898;8.202;2023-08-08T08:39:34;17.97;;;16.07;;
14939;SDS011;11825;51.898;8.202;2023-08-08T08:44:41;19.83;;;17.57;;
14939;SDS011;11825;51.898;8.202;2023-08-08T08:49:46;20.10;;;18.10;;
14939;SDS011;11825;51.898;8.202;2023-08-08T08:54:50;17.87;;;16.03;;
14939;SDS011;11825;51.898;8.202;2023-08-08T09:00:03;16.63;;;15.03;;
14939;SDS011;11825;51.898;8.202;2023-08-08T09:05:25;22.17;;;18.40;;
14939;SDS011;11825;51.898;8.202;2023-08-08T09:10:49;26.30;;;19.80;;
14939;SDS011;11825;51.898;8.202;2023-08-08T09:16:13;20.50;;;18.33;;
14939;SDS011;11825;51.898;8.202;2023-08-08T09:27:34;16.47;;;14.77;;
14939;SDS011;11825;51.898;8.202;2023-08-08T09:32:40;17.80;;;11.03;;
14939;SDS011;11825;51.898;8.202;2023-08-08T09:38:11;6.87;;;5.83;;
14939;SDS011;11825;51.898;8.202;2023-08-08T10:09:50;3.73;;;3.00;;
14939;SDS011;11825;51.898;8.202;2023-08-08T11:00:18;1.57;;;1.37;;
14939;SDS011;11825;51.898;8.202;2023-08-08T12:01:48;1.90;;;1.30;;
14939;SDS011;11825;51.898;8.202;2023-08-08T12:25:20;3.73;;;2.43;;
14939;SDS011;11825;51.898;8.202;2023-08-08T12:30:29;3.30;;;1.07;;
14939;SDS011;11825;51.898;8.202;2023-08-08T12:35:33;2.13;;;1.27;;
14939;SDS011;11825;51.898;8.202;2023-08-08T12:40:56;5.40;;;3.97;;
14939;SDS011;11825;51.898;8.202;2023-08-08T12:51:57;1.60;;;1.50;;
14939;SDS011;11825;51.898;8.202;2023-08-08T12:57:15;1.33;;;1.10;;
14939;SDS011;11825;51.898;8.202;2023-08-08T13:27:55;1.60;;;1.23;;
14939;SDS011;11825;51.898;8.202;2023-08-08T13:33:24;1.80;;;1.70;;
14939;SDS011;11825;51.898;8.202;2023-08-08T13:45:06;1.43;;;1.33;;
14939;SDS011;11825;51.898;8.202;2023-08-08T14:14:49;3.23;;;1.73;;
14939;SDS011;11825;51.898;8.202;2023-08-08T14:26:38;2.33;;;1.90;;
14939;SDS011;11825;51.898;8.202;2023-08-08T14:39:02;3.27;;;1.73;;
14939;SDS011;11825;51.898;8.202;2023-08-08T14:44:12;3.47;;;1.90;;
14939;SDS011;11825;51.898;8.202;2023-08-08T14:49:25;1.07;;;0.90;;
14939;SDS011;11825;51.898;8.202;2023-08-08T14:54:36;3.97;;;1.33;;
14939;SDS011;11825;51.898;8.202;2023-08-08T14:59:38;2.53;;;1.43;;
14939;SDS011;11825;51.898;8.202;2023-08-08T15:10:14;3.80;;;1.37;;
14939;SDS011;11825;51.898;8.202;2023-08-08T15:15:19;2.20;;;1.60;;
14939;SDS011;11825;51.898;8.202;2023-08-08T15:20:45;0.87;;;0.87;;
14939;SDS011;11825;51.898;8.202;2023-08-08T15:25:47;2.37;;;1.20;;
14939;SDS011;11825;51.898;8.202;2023-08-08T15:42:50;2.07;;;1.50;;
14939;SDS011;11825;51.898;8.202;2023-08-08T15:54:19;1.47;;;1.17;;
14939;SDS011;11825;51.898;8.202;2023-08-08T15:59:21;1.03;;;1.03;;
14939;SDS011;11825;51.898;8.202;2023-08-08T16:11:07;6.27;;;1.67;;
14939;SDS011;11825;51.898;8.202;2023-08-08T16:16:23;1.13;;;1.13;;
14939;SDS011;11825;51.898;8.202;2023-08-08T16:26:55;2.97;;;1.43;;
14939;SDS011;11825;51.898;8.202;2023-08-08T16:38:39;2.70;;;1.23;;
14939;SDS011;11825;51.898;8.202;2023-08-08T16:44:02;1.87;;;1.10;;
14939;SDS011;11825;51.898;8.202;2023-08-08T17:01:13;1.20;;;1.10;;
14939;SDS011;11825;51.898;8.202;2023-08-08T17:06:15;2.83;;;1.43;;
14939;SDS011;11825;51.898;8.202;2023-08-08T17:11:28;1.40;;;1.30;;
14939;SDS011;11825;51.898;8.202;2023-08-08T17:16:37;2.43;;;1.37;;
14939;SDS011;11825;51.898;8.202;2023-08-08T17:22:23;1.10;;;1.10;;
14939;SDS011;11825;51.898;8.202;2023-08-08T17:27:38;1.37;;;1.30;;
14939;SDS011;11825;51.898;8.202;2023-08-08T17:32:51;2.23;;;1.23;;
14939;SDS011;11825;51.898;8.202;2023-08-08T17:44:25;2.30;;;1.00;;
14939;SDS011;11825;51.898;8.202;2023-08-08T17:49:33;2.83;;;1.30;;
14939;SDS011;11825;51.898;8.202;2023-08-08T17:54:41;1.43;;;1.30;;
14939;SDS011;11825;51.898;8.202;2023-08-08T17:59:45;2.67;;;0.87;;
14939;SDS011;11825;51.898;8.202;2023-08-08T18:05:43;1.30;;;1.20;;
14939;SDS011;11825;51.898;8.202;2023-08-08T18:10:45;1.57;;;1.37;;
14939;SDS011;11825;51.898;8.202;2023-08-08T18:15:47;0.90;;;0.90;;
14939;SDS011;11825;51.898;8.202;2023-08-08T18:20:54;1.80;;;1.57;;
14939;SDS011;11825;51.898;8.202;2023-08-08T18:38:35;1.57;;;1.37;;
14939;SDS011;11825;51.898;8.202;2023-08-08T18:50:00;1.30;;;1.20;;
14939;SDS011;11825;51.898;8.202;2023-08-08T18:55:25;2.00;;;1.80;;
14939;SDS011;11825;51.898;8.202;2023-08-08T19:00:36;1.40;;;1.30;;
14939;SDS011;11825;51.898;8.202;2023-08-08T19:17:41;1.73;;;1.20;;
14939;SDS011;11825;51.898;8.202;2023-08-08T19:29:23;4.90;;;4.33;;
14939;SDS011;11825;51.898;8.202;2023-08-08T19:34:45;5.57;;;2.73;;
14939;SDS011;11825;51.898;8.202;2023-08-08T19:40:21;2.07;;;1.53;;
14939;SDS011;11825;51.898;8.202;2023-08-08T20:04:32;4.20;;;1.90;;
14939;SDS011;11825;51.898;8.202;2023-08-08T20:15:55;1.53;;;1.33;;
14939;SDS011;11825;51.898;8.202;2023-08-08T20:21:09;2.67;;;1.30;;
14939;SDS011;11825;51.898;8.202;2023-08-08T20:26:22;12.83;;;9.53;;
14939;SDS011;11825;51.898;8.202;2023-08-08T20:38:00;2.57;;;1.33;;
14939;SDS011;11825;51.898;8.202;2023-08-08T21:28:43;5.53;;;2.80;;
14939;SDS011;11825;51.898;8.202;2023-08-08T21:33:58;1.87;;;1.77;;
14939;SDS011;11825;51.898;8.202;2023-08-08T21:39:14;3.37;;;1.90;;
14939;SDS011;11825;51.898;8.202;2023-08-08T21:44:28;4.67;;;2.17;;
14939;SDS011;11825;51.898;8.202;2023-08-08T21:50:20;2.87;;;1.50;;
14939;SDS011;11825;51.898;8.202;2023-08-08T21:55:27;3.00;;;2.07;;
14939;SDS011;11825;51.898;8.202;2023-08-08T22:00:47;2.17;;;1.73;;
14939;SDS011;11825;51.898;8.202;2023-08-08T22:05:56;5.40;;;2.40;;
14939;SDS011;11825;51.898;8.202;2023-08-08T22:11:05;4.07;;;2.37;;
14939;SDS011;11825;51.898;8.202;2023-08-08T22:16:10;2.73;;;2.30;;
14939;SDS011;11825;51.898;8.202;2023-08-08T22:21:17;6.03;;;2.67;;
14939;SDS011;11825;51.898;8.202;2023-08-08T22:26:21;2.97;;;2.70;;
14939;SDS011;11825;51.898;8.202;2023-08-08T22:31:26;3.00;;;2.30;;
14939;SDS011;11825;51.898;8.202;2023-08-08T22:36:31;6.97;;;2.60;;
14939;SDS011;11825;51.898;8.202;2023-08-08T22:41:35;3.40;;;2.70;;
14939;SDS011;11825;51.898;8.202;2023-08-08T22:46:42;2.37;;;2.17;;
14939;SDS011;11825;51.898;8.202;2023-08-08T22:51:46;3.33;;;2.40;;
14939;SDS011;11825;51.898;8.202;2023-08-08T22:56:54;2.50;;;1.80;;
14939;SDS011;11825;51.898;8.202;2023-08-08T23:01:56;2.87;;;2.10;;
14939;SDS011;11825;51.898;8.202;2023-08-08T23:06:58;4.23;;;2.30;;
14939;SDS011;11825;51.898;8.202;2023-08-08T23:12:24;3.87;;;2.10;;
14939;SDS011;11825;51.898;8.202;2023-08-08T23:17:30;2.77;;;2.27;;
14939;SDS011;11825;51.898;8.202;2023-08-08T23:22:32;2.57;;;2.37;;
14939;SDS011;11825;51.898;8.202;2023-08-08T23:27:36;3.13;;;2.77;;
14939;SDS011;11825;51.898;8.202;2023-08-08T23:32:38;2.77;;;2.50;;
14939;SDS011;11825;51.898;8.202;2023-08-08T23:37:51;3.63;;;2.10;;
14939;SDS011;11825;51.898;8.202;2023-08-08T23:42:52;2.43;;;2.23;;
14939;SDS011;11825;51.898;8.202;2023-08-08T23:47:54;3.60;;;2.20;;
14939;SDS011;11825;51.898;8.202;2023-08-08T23:52:56;2.40;;;2.20;;
14939;SDS011;11825;51.898;8.202;2023-08-08T23:57:58;1.97;;;1.83;;
